createdAt,value
2022-08-04T00:02:50.476Z,4036.8
2022-08-04T00:08:25.197Z,4037.4
2022-08-04T00:14:05.103Z,4037.9
2022-08-04T00:19:40.890Z,4038.6
2022-08-04T00:25:17.528Z,4038.9
2022-08-04T00:30:55.628Z,4038.4
2022-08-04T00:36:32.010Z,4038.6
2022-08-04T00:42:07.911Z,4038.3
2022-08-04T00:47:42.766Z,4038.9
2022-08-04T00:53:18.448Z,4038.8
2022-08-04T00:58:53.473Z,4038.8
2022-08-04T01:04:28.462Z,4037.8
2022-08-04T01:10:03.387Z,4037.9
2022-08-04T01:16:02.964Z,4038.4
2022-08-04T01:21:38.011Z,4036.9
2022-08-04T01:27:14.931Z,4034.9
2022-08-04T01:32:49.938Z,4036.9
2022-08-04T01:38:24.980Z,4038.1
2022-08-04T01:44:01.183Z,4036.6
2022-08-04T01:49:42.153Z,4036.6
2022-08-04T01:55:16.882Z,4035.4
2022-08-04T02:00:58.442Z,4035.6
2022-08-04T02:06:33.503Z,4036.4
2022-08-04T02:12:17.431Z,4036.4
2022-08-04T02:18:14.028Z,4034.1
2022-08-04T02:23:46.851Z,4035.4
2022-08-04T02:29:21.598Z,4035.6
2022-08-04T02:34:56.386Z,4036.2
2022-08-04T02:40:31.263Z,4034.9
2022-08-04T02:46:19.228Z,4034.2
2022-08-04T02:51:53.983Z,4035.1
2022-08-04T02:57:29.018Z,4036.2
2022-08-04T03:03:08.091Z,4034.6
2022-08-04T03:08:42.913Z,4034.4
2022-08-04T03:14:17.879Z,4034.4
2022-08-04T03:19:52.739Z,4033.9
2022-08-04T03:25:31.085Z,4034.7
2022-08-04T03:31:05.892Z,4033.7
2022-08-04T03:36:40.777Z,4033.1
2022-08-04T03:42:17.157Z,4033.4
2022-08-04T03:47:52.224Z,4033.2
2022-08-04T03:53:27.061Z,4032.6
2022-08-04T03:59:03.100Z,4033.1
2022-08-04T04:04:41.708Z,4030.6
2022-08-04T04:10:29.816Z,4032.1
2022-08-04T04:16:04.666Z,4032.7
2022-08-04T04:21:40.898Z,4031.1
2022-08-04T04:27:16.707Z,4029.5
2022-08-04T04:32:51.616Z,4030.7
2022-08-04T04:38:26.481Z,4032.1
2022-08-04T04:44:01.652Z,4030.7
2022-08-04T04:49:37.730Z,4030.7
2022-08-04T04:55:12.856Z,4030.7
2022-08-04T05:00:47.774Z,4031.2
2022-08-04T05:06:22.704Z,4030.7
2022-08-04T05:11:58.323Z,4032.4
2022-08-04T05:17:56.101Z,4025
2022-08-04T05:23:28.863Z,4027.2
2022-08-04T05:29:04.035Z,4028.2
2022-08-04T05:34:38.834Z,4030.1
2022-08-04T05:40:13.789Z,4028.2
2022-08-04T05:45:49.820Z,4029
2022-08-04T05:51:24.679Z,4030.2
2022-08-04T05:56:59.546Z,4026.7
2022-08-04T06:02:37.258Z,4023.9
2022-08-04T06:08:14.983Z,4025
2022-08-04T06:13:52.162Z,4027.7
2022-08-04T06:20:27.143Z,4030.7
2022-08-04T06:26:06.043Z,4033.4
2022-08-04T06:32:42.767Z,4034.4
2022-08-04T06:38:22.139Z,4035.6
2022-08-04T06:43:57.142Z,4038.9
2022-08-04T06:51:50.076Z,4038.8
2022-08-04T06:57:25.559Z,4038.1
2022-08-04T07:03:00.302Z,4036.1
2022-08-04T07:08:35.243Z,4037.1
2022-08-04T07:14:11.302Z,4039.4
2022-08-04T07:19:46.212Z,4041.8
2022-08-04T07:26:13.978Z,4044.1
2022-08-04T07:31:49.491Z,4049.5
2022-08-04T07:37:43.183Z,4048
2022-08-04T07:43:27.174Z,4049.6
2022-08-04T07:49:02.349Z,4045.5
2022-08-04T07:54:37.185Z,4048.6
2022-08-04T08:00:13.478Z,4052.5
2022-08-04T08:06:44.227Z,4059.4
2022-08-04T08:12:53.424Z,4054.3
2022-08-04T08:18:51.344Z,4061.2
2022-08-04T08:24:24.068Z,4061.7
2022-08-04T08:29:59.213Z,4065.1
2022-08-04T08:35:55.830Z,4070.9
2022-08-04T08:41:30.776Z,4069.1
2022-08-04T08:47:05.618Z,4069.1
2022-08-04T08:53:04.224Z,4072.6
2022-08-04T08:58:40.395Z,4077.6
2022-08-04T09:04:33.234Z,4080.1
2022-08-04T09:10:08.527Z,4077.8
2022-08-04T09:15:43.424Z,4085.3
2022-08-04T09:21:19.187Z,4090
2022-08-04T09:27:01.609Z,4096.2
2022-08-04T09:32:36.439Z,4099.6
2022-08-04T09:38:11.279Z,4107.3
2022-08-04T09:45:07.566Z,4142.8
2022-08-04T09:50:51.819Z,4096.4
2022-08-04T09:56:26.634Z,4148.3
2022-08-04T10:02:01.598Z,4159.4
2022-08-04T10:07:36.454Z,4165.9
2022-08-04T10:13:11.596Z,4190.2
2022-08-04T10:19:09.540Z,4169.6
2022-08-04T10:24:43.480Z,4181.6
2022-08-04T10:30:18.278Z,4187.3
2022-08-04T10:35:52.887Z,4199.9
2022-08-04T10:41:28.878Z,4201.9
2022-08-04T10:47:04.502Z,4172.1
2022-08-04T10:52:39.402Z,4200.9
2022-08-04T10:58:15.294Z,4203.4
2022-08-04T11:03:50.358Z,4204.4
2022-08-04T11:09:25.296Z,4209.3
2022-08-04T11:15:01.843Z,4207.1
2022-08-04T11:20:38.573Z,4208.6
2022-08-04T11:26:13.564Z,4210.6
2022-08-04T11:31:53.204Z,4203.6
2022-08-04T11:37:28.543Z,4205.8
2022-08-04T11:43:03.394Z,4200.2
2022-08-04T11:48:38.124Z,4198.2
2022-08-04T11:54:13.018Z,4215.5
2022-08-04T11:59:47.841Z,4218.7
2022-08-04T12:05:38.645Z,4210.3
2022-08-04T12:11:13.749Z,4204.8
2022-08-04T12:17:10.674Z,4198.1
2022-08-04T12:22:44.037Z,4200.6
2022-08-04T12:28:19.646Z,4207.1
2022-08-04T12:34:07.729Z,4199.2
2022-08-04T12:40:33.765Z,4197.9
2022-08-04T12:46:09.804Z,4206.3
2022-08-04T12:52:10.602Z,4201.4
2022-08-04T12:57:47.552Z,4205.8
2022-08-04T13:03:22.369Z,4198.6
2022-08-04T13:08:57.207Z,4184.7
2022-08-04T13:14:32.176Z,4203.4
2022-08-04T13:20:07.028Z,4211.8
2022-08-04T13:26:57.610Z,4201.4
2022-08-04T13:32:41.021Z,4208.3
2022-08-04T13:38:16.167Z,4197
2022-08-04T13:44:21.627Z,4210.6
2022-08-04T13:50:14.141Z,4207.9
2022-08-04T13:56:01.084Z,4207.4
2022-08-04T14:01:37.983Z,4200.9
2022-08-04T14:07:22.917Z,4211.8
2022-08-04T14:12:58.605Z,4210.6
2022-08-04T14:18:33.828Z,4212.6
2022-08-04T14:24:08.812Z,4199.2
2022-08-04T14:29:43.591Z,4195.4
2022-08-04T14:35:51.792Z,4213
2022-08-04T14:41:28.434Z,4218.5
2022-08-04T14:47:03.342Z,4208.8
2022-08-04T14:52:37.977Z,4209.4
2022-08-04T14:59:00.147Z,4219.2
2022-08-04T15:04:35.531Z,4206.6
2022-08-04T15:10:14.454Z,4227.5
2022-08-04T15:16:09.712Z,4228.2
2022-08-04T15:21:44.704Z,4218.2
2022-08-04T15:27:20.596Z,4215.8
2022-08-04T15:32:55.615Z,4228.7
2022-08-04T15:38:34.299Z,4211.5
2022-08-04T15:44:10.688Z,4216.8
2022-08-04T15:49:46.440Z,4211
2022-08-04T15:55:22.157Z,4204.1
2022-08-04T16:00:57.325Z,4216.5
2022-08-04T16:06:32.199Z,4223
2022-08-04T16:12:55.645Z,4220
2022-08-04T16:18:53.092Z,4224.9
2022-08-04T16:24:25.881Z,4217.1
2022-08-04T16:30:00.720Z,4226.5
2022-08-04T16:35:43.469Z,4217.8
2022-08-04T16:41:19.571Z,4218.7
2022-08-04T16:47:23.730Z,4233.6
2022-08-04T16:52:59.875Z,4225.7
2022-08-04T16:58:55.252Z,4214.3
2022-08-04T17:04:30.149Z,4209.4
2022-08-04T17:10:05.304Z,4211.3
2022-08-04T17:15:40.110Z,4219.8
2022-08-04T17:21:14.903Z,4211.5
2022-08-04T17:26:56.270Z,4218
2022-08-04T17:32:31.171Z,4216.8
2022-08-04T17:38:06.409Z,4214.3
2022-08-04T17:44:08.170Z,4218.5
2022-08-04T17:49:54.566Z,4220.2
2022-08-04T17:55:30.846Z,4212
2022-08-04T18:01:26.088Z,4207.9
2022-08-04T18:07:02.911Z,4205.1
2022-08-04T18:12:43.871Z,4202.6
2022-08-04T18:18:51.705Z,4201.2
2022-08-04T18:24:57.586Z,4202.6
2022-08-04T18:30:57.324Z,4200.9
2022-08-04T18:36:57.625Z,4201.6
2022-08-04T18:42:41.844Z,4201.9
2022-08-04T18:48:19.873Z,4201.2
2022-08-04T18:54:00.366Z,4201.1
2022-08-04T18:59:35.698Z,4201.9
2022-08-04T19:05:22.762Z,4200.7
2022-08-04T22:25:17.539Z,4201.6
2022-08-04T22:30:55.504Z,4146
2022-08-04T22:36:36.058Z,4147
2022-08-04T22:42:14.512Z,4147.1
2022-08-04T22:47:54.409Z,4147.1
2022-08-04T22:53:31.818Z,4146.5
2022-08-04T22:59:12.414Z,4147
2022-08-04T23:04:55.119Z,4146.5
2022-08-04T23:10:33.267Z,4146.6
2022-08-04T23:16:12.470Z,4146
2022-08-04T23:22:02.857Z,4146
2022-08-04T23:27:52.889Z,4146.3
2022-08-04T23:33:53.445Z,4145
2022-08-04T23:40:53.537Z,4145.1
2022-08-04T23:46:28.876Z,4144.6
2022-08-04T23:52:05.797Z,4143.6
2022-08-04T23:58:30.713Z,4144
